sensor_id;sensor_type;location;lat;lon;timestamp;P1;durP1;ratioP1;P2;durP2;ratioP2
9526;SDS011;4802;51.494;6.770;2022-08-19T00:02:16;1.37;;;1.33;;
9526;SDS011;4802;51.494;6.770;2022-08-19T00:04:46;3.90;;;3.57;;
9526;SDS011;4802;51.494;6.770;2022-08-19T00:07:19;2.47;;;1.97;;
9526;SDS011;4802;51.494;6.770;2022-08-19T00:09:48;3.40;;;3.10;;
9526;SDS011;4802;51.494;6.770;2022-08-19T00:12:18;1.53;;;1.43;;
9526;SDS011;4802;51.494;6.770;2022-08-19T00:14:48;3.20;;;3.00;;
9526;SDS011;4802;51.494;6.770;2022-08-19T00:17:17;2.20;;;2.10;;
9526;SDS011;4802;51.494;6.770;2022-08-19T00:19:46;2.43;;;2.30;;
9526;SDS011;4802;51.494;6.770;2022-08-19T00:22:18;2.20;;;2.10;;
9526;SDS011;4802;51.494;6.770;2022-08-19T00:24:47;2.03;;;1.90;;
9526;SDS011;4802;51.494;6.770;2022-08-19T00:27:27;2.80;;;2.53;;
9526;SDS011;4802;51.494;6.770;2022-08-19T00:30:00;2.20;;;1.93;;
9526;SDS011;4802;51.494;6.770;2022-08-19T00:32:30;2.37;;;2.17;;
9526;SDS011;4802;51.494;6.770;2022-08-19T00:34:59;2.00;;;1.83;;
9526;SDS011;4802;51.494;6.770;2022-08-19T00:37:29;3.53;;;2.47;;
9526;SDS011;4802;51.494;6.770;2022-08-19T00:40:07;4.73;;;1.90;;
9526;SDS011;4802;51.494;6.770;2022-08-19T00:42:37;2.03;;;1.90;;
9526;SDS011;4802;51.494;6.770;2022-08-19T00:45:11;2.20;;;1.70;;
9526;SDS011;4802;51.494;6.770;2022-08-19T00:47:45;5.40;;;3.03;;
9526;SDS011;4802;51.494;6.770;2022-08-19T00:50:20;2.47;;;2.27;;
9526;SDS011;4802;51.494;6.770;2022-08-19T00:52:49;1.63;;;1.63;;
9526;SDS011;4802;51.494;6.770;2022-08-19T00:55:20;1.77;;;1.67;;
9526;SDS011;4802;51.494;6.770;2022-08-19T00:57:53;2.03;;;1.93;;
9526;SDS011;4802;51.494;6.770;2022-08-19T01:00:32;2.33;;;2.20;;
9526;SDS011;4802;51.494;6.770;2022-08-19T01:03:03;1.97;;;1.83;;
9526;SDS011;4802;51.494;6.770;2022-08-19T01:05:33;2.40;;;1.87;;
9526;SDS011;4802;51.494;6.770;2022-08-19T01:08:04;2.53;;;2.43;;
9526;SDS011;4802;51.494;6.770;2022-08-19T01:10:36;2.80;;;2.57;;
9526;SDS011;4802;51.494;6.770;2022-08-19T01:13:08;3.17;;;1.87;;
9526;SDS011;4802;51.494;6.770;2022-08-19T01:15:40;3.93;;;2.30;;
9526;SDS011;4802;51.494;6.770;2022-08-19T01:18:13;2.77;;;2.03;;
9526;SDS011;4802;51.494;6.770;2022-08-19T01:20:44;1.93;;;1.83;;
9526;SDS011;4802;51.494;6.770;2022-08-19T01:23:15;2.23;;;2.03;;
9526;SDS011;4802;51.494;6.770;2022-08-19T01:25:46;2.33;;;1.90;;
9526;SDS011;4802;51.494;6.770;2022-08-19T01:28:26;2.23;;;2.03;;
9526;SDS011;4802;51.494;6.770;2022-08-19T01:31:11;1.80;;;1.70;;
9526;SDS011;4802;51.494;6.770;2022-08-19T01:33:54;2.00;;;1.90;;
9526;SDS011;4802;51.494;6.770;2022-08-19T01:36:26;13.83;;;3.00;;
9526;SDS011;4802;51.494;6.770;2022-08-19T01:39:04;2.43;;;2.23;;
9526;SDS011;4802;51.494;6.770;2022-08-19T01:41:36;3.07;;;2.57;;
9526;SDS011;4802;51.494;6.770;2022-08-19T01:44:05;6.77;;;2.80;;
9526;SDS011;4802;51.494;6.770;2022-08-19T01:46:45;3.23;;;2.63;;
9526;SDS011;4802;51.494;6.770;2022-08-19T01:49:16;1.47;;;1.27;;
9526;SDS011;4802;51.494;6.770;2022-08-19T01:51:46;3.20;;;2.90;;
9526;SDS011;4802;51.494;6.770;2022-08-19T01:54:18;3.60;;;2.27;;
9526;SDS011;4802;51.494;6.770;2022-08-19T01:56:55;1.80;;;1.70;;
9526;SDS011;4802;51.494;6.770;2022-08-19T01:59:28;2.20;;;1.90;;
9526;SDS011;4802;51.494;6.770;2022-08-19T02:02:00;3.77;;;1.83;;
9526;SDS011;4802;51.494;6.770;2022-08-19T02:04:35;1.73;;;1.63;;
9526;SDS011;4802;51.494;6.770;2022-08-19T02:07:05;2.23;;;2.10;;
9526;SDS011;4802;51.494;6.770;2022-08-19T02:09:38;2.97;;;2.47;;
9526;SDS011;4802;51.494;6.770;2022-08-19T02:12:07;14.30;;;2.00;;
9526;SDS011;4802;51.494;6.770;2022-08-19T02:14:37;2.10;;;1.93;;
9526;SDS011;4802;51.494;6.770;2022-08-19T02:17:05;2.40;;;2.20;;
9526;SDS011;4802;51.494;6.770;2022-08-19T02:19:34;2.63;;;2.20;;
9526;SDS011;4802;51.494;6.770;2022-08-19T02:22:06;3.60;;;2.10;;
9526;SDS011;4802;51.494;6.770;2022-08-19T02:24:35;3.73;;;2.30;;
9526;SDS011;4802;51.494;6.770;2022-08-19T02:27:06;1.87;;;1.77;;
9526;SDS011;4802;51.494;6.770;2022-08-19T02:29:36;3.40;;;2.50;;
9526;SDS011;4802;51.494;6.770;2022-08-19T02:32:05;3.57;;;2.87;;
9526;SDS011;4802;51.494;6.770;2022-08-19T02:34:34;1.93;;;1.77;;
9526;SDS011;4802;51.494;6.770;2022-08-19T02:37:03;2.63;;;2.43;;
9526;SDS011;4802;51.494;6.770;2022-08-19T02:39:32;3.90;;;2.00;;
9526;SDS011;4802;51.494;6.770;2022-08-19T02:42:00;3.13;;;2.50;;
9526;SDS011;4802;51.494;6.770;2022-08-19T02:44:30;3.33;;;2.17;;
9526;SDS011;4802;51.494;6.770;2022-08-19T02:46:59;2.27;;;2.07;;
9526;SDS011;4802;51.494;6.770;2022-08-19T02:49:30;2.40;;;2.30;;
9526;SDS011;4802;51.494;6.770;2022-08-19T02:52:00;1.80;;;1.70;;
9526;SDS011;4802;51.494;6.770;2022-08-19T02:54:29;2.63;;;2.03;;
9526;SDS011;4802;51.494;6.770;2022-08-19T02:56:59;2.90;;;2.47;;
9526;SDS011;4802;51.494;6.770;2022-08-19T02:59:30;1.83;;;1.73;;
9526;SDS011;4802;51.494;6.770;2022-08-19T03:02:00;3.27;;;2.27;;
9526;SDS011;4802;51.494;6.770;2022-08-19T03:04:29;3.30;;;2.60;;
9526;SDS011;4802;51.494;6.770;2022-08-19T03:06:58;8.23;;;2.50;;
9526;SDS011;4802;51.494;6.770;2022-08-19T03:09:36;2.80;;;1.93;;
9526;SDS011;4802;51.494;6.770;2022-08-19T03:12:08;1.87;;;1.77;;
9526;SDS011;4802;51.494;6.770;2022-08-19T03:14:39;2.83;;;2.63;;
9526;SDS011;4802;51.494;6.770;2022-08-19T03:17:08;2.80;;;2.03;;
9526;SDS011;4802;51.494;6.770;2022-08-19T03:19:37;2.70;;;2.50;;
9526;SDS011;4802;51.494;6.770;2022-08-19T03:22:06;1.47;;;1.37;;
9526;SDS011;4802;51.494;6.770;2022-08-19T03:24:35;2.00;;;1.80;;
9526;SDS011;4802;51.494;6.770;2022-08-19T03:27:05;2.47;;;2.37;;
9526;SDS011;4802;51.494;6.770;2022-08-19T03:29:34;2.60;;;2.50;;
9526;SDS011;4802;51.494;6.770;2022-08-19T03:32:10;2.07;;;1.87;;
9526;SDS011;4802;51.494;6.770;2022-08-19T03:34:59;3.43;;;2.70;;
9526;SDS011;4802;51.494;6.770;2022-08-19T03:37:28;3.40;;;3.10;;
9526;SDS011;4802;51.494;6.770;2022-08-19T03:39:57;2.07;;;1.97;;
9526;SDS011;4802;51.494;6.770;2022-08-19T03:42:27;3.03;;;2.83;;
9526;SDS011;4802;51.494;6.770;2022-08-19T03:45:14;2.93;;;2.10;;
9526;SDS011;4802;51.494;6.770;2022-08-19T03:47:45;2.73;;;2.53;;
9526;SDS011;4802;51.494;6.770;2022-08-19T03:50:15;2.93;;;2.73;;
9526;SDS011;4802;51.494;6.770;2022-08-19T03:52:47;2.67;;;2.50;;
9526;SDS011;4802;51.494;6.770;2022-08-19T03:55:18;2.60;;;2.43;;
9526;SDS011;4802;51.494;6.770;2022-08-19T03:57:48;3.33;;;2.60;;
9526;SDS011;4802;51.494;6.770;2022-08-19T04:00:24;2.50;;;2.40;;
9526;SDS011;4802;51.494;6.770;2022-08-19T04:02:57;3.00;;;2.80;;
9526;SDS011;4802;51.494;6.770;2022-08-19T04:05:30;2.83;;;2.63;;
9526;SDS011;4802;51.494;6.770;2022-08-19T04:07:59;3.07;;;2.80;;
9526;SDS011;4802;51.494;6.770;2022-08-19T04:10:38;3.53;;;3.20;;
9526;SDS011;4802;51.494;6.770;2022-08-19T04:13:09;3.80;;;3.30;;
9526;SDS011;4802;51.494;6.770;2022-08-19T04:15:39;11.50;;;3.30;;
9526;SDS011;4802;51.494;6.770;2022-08-19T04:18:09;3.50;;;2.30;;
9526;SDS011;4802;51.494;6.770;2022-08-19T04:20:39;5.07;;;4.60;;
9526;SDS011;4802;51.494;6.770;2022-08-19T04:23:14;2.43;;;2.30;;
9526;SDS011;4802;51.494;6.770;2022-08-19T04:25:47;3.17;;;2.85;;
9526;SDS011;4802;51.494;6.770;2022-08-19T04:28:17;4.00;;;3.70;;
9526;SDS011;4802;51.494;6.770;2022-08-19T04:30:50;4.23;;;3.60;;
9526;SDS011;4802;51.494;6.770;2022-08-19T04:33:24;4.00;;;3.60;;
9526;SDS011;4802;51.494;6.770;2022-08-19T04:35:55;2.93;;;2.73;;
9526;SDS011;4802;51.494;6.770;2022-08-19T04:38:24;3.70;;;3.30;;
9526;SDS011;4802;51.494;6.770;2022-08-19T04:40:54;3.77;;;2.77;;
9526;SDS011;4802;51.494;6.770;2022-08-19T04:43:40;2.30;;;2.20;;
9526;SDS011;4802;51.494;6.770;2022-08-19T04:46:11;5.20;;;3.27;;
9526;SDS011;4802;51.494;6.770;2022-08-19T04:49:03;3.30;;;3.00;;
9526;SDS011;4802;51.494;6.770;2022-08-19T04:51:39;3.60;;;3.30;;
9526;SDS011;4802;51.494;6.770;2022-08-19T04:54:09;4.30;;;4.00;;
9526;SDS011;4802;51.494;6.770;2022-08-19T04:56:39;3.47;;;2.90;;
9526;SDS011;4802;51.494;6.770;2022-08-19T04:59:08;2.97;;;2.63;;
9526;SDS011;4802;51.494;6.770;2022-08-19T05:01:38;6.70;;;4.40;;
9526;SDS011;4802;51.494;6.770;2022-08-19T05:04:15;4.10;;;3.70;;
9526;SDS011;4802;51.494;6.770;2022-08-19T05:06:48;7.47;;;3.93;;
9526;SDS011;4802;51.494;6.770;2022-08-19T05:09:26;4.40;;;4.00;;
9526;SDS011;4802;51.494;6.770;2022-08-19T05:12:16;3.27;;;3.07;;
9526;SDS011;4802;51.494;6.770;2022-08-19T05:14:45;4.07;;;3.33;;
9526;SDS011;4802;51.494;6.770;2022-08-19T05:17:16;4.13;;;3.73;;
9526;SDS011;4802;51.494;6.770;2022-08-19T05:20:04;4.00;;;3.63;;
9526;SDS011;4802;51.494;6.770;2022-08-19T05:22:52;4.20;;;3.27;;
9526;SDS011;4802;51.494;6.770;2022-08-19T05:25:21;4.50;;;3.70;;
9526;SDS011;4802;51.494;6.770;2022-08-19T05:27:53;4.50;;;3.90;;
9526;SDS011;4802;51.494;6.770;2022-08-19T05:30:22;4.27;;;3.97;;
9526;SDS011;4802;51.494;6.770;2022-08-19T05:33:11;25.87;;;5.70;;
9526;SDS011;4802;51.494;6.770;2022-08-19T05:35:46;6.40;;;4.97;;
9526;SDS011;4802;51.494;6.770;2022-08-19T05:38:16;8.10;;;6.30;;
9526;SDS011;4802;51.494;6.770;2022-08-19T05:40:46;7.63;;;5.90;;
9526;SDS011;4802;51.494;6.770;2022-08-19T05:43:16;8.03;;;5.37;;
9526;SDS011;4802;51.494;6.770;2022-08-19T05:45:45;6.37;;;5.27;;
9526;SDS011;4802;51.494;6.770;2022-08-19T05:48:14;7.63;;;5.47;;
9526;SDS011;4802;51.494;6.770;2022-08-19T05:50:46;7.77;;;6.07;;
9526;SDS011;4802;51.494;6.770;2022-08-19T05:53:17;8.83;;;6.40;;
9526;SDS011;4802;51.494;6.770;2022-08-19T05:55:46;15.27;;;7.40;;
9526;SDS011;4802;51.494;6.770;2022-08-19T05:58:16;7.87;;;6.40;;
9526;SDS011;4802;51.494;6.770;2022-08-19T06:00:48;13.97;;;7.70;;
9526;SDS011;4802;51.494;6.770;2022-08-19T06:03:18;8.90;;;7.37;;
9526;SDS011;4802;51.494;6.770;2022-08-19T06:05:59;12.93;;;7.40;;
9526;SDS011;4802;51.494;6.770;2022-08-19T06:08:29;12.10;;;8.53;;
9526;SDS011;4802;51.494;6.770;2022-08-19T06:13:46;12.57;;;8.90;;
9526;SDS011;4802;51.494;6.770;2022-08-19T06:16:25;11.03;;;8.40;;
9526;SDS011;4802;51.494;6.770;2022-08-19T06:18:54;13.90;;;8.13;;
9526;SDS011;4802;51.494;6.770;2022-08-19T06:21:27;13.13;;;10.10;;
9526;SDS011;4802;51.494;6.770;2022-08-19T06:23:57;12.43;;;10.33;;
9526;SDS011;4802;51.494;6.770;2022-08-19T06:26:27;11.80;;;9.20;;
9526;SDS011;4802;51.494;6.770;2022-08-19T06:28:56;10.30;;;8.27;;
9526;SDS011;4802;51.494;6.770;2022-08-19T06:31:26;11.93;;;8.47;;
9526;SDS011;4802;51.494;6.770;2022-08-19T06:33:57;9.83;;;8.03;;
9526;SDS011;4802;51.494;6.770;2022-08-19T06:36:32;11.47;;;8.17;;
9526;SDS011;4802;51.494;6.770;2022-08-19T06:39:02;10.53;;;7.23;;
9526;SDS011;4802;51.494;6.770;2022-08-19T06:41:34;11.50;;;8.80;;
9526;SDS011;4802;51.494;6.770;2022-08-19T06:44:12;10.67;;;8.80;;
9526;SDS011;4802;51.494;6.770;2022-08-19T06:46:42;8.23;;;7.53;;
9526;SDS011;4802;51.494;6.770;2022-08-19T06:49:20;9.83;;;8.17;;
9526;SDS011;4802;51.494;6.770;2022-08-19T06:51:53;10.30;;;7.93;;
9526;SDS011;4802;51.494;6.770;2022-08-19T06:54:23;10.87;;;7.80;;
9526;SDS011;4802;51.494;6.770;2022-08-19T06:56:57;10.57;;;9.07;;
9526;SDS011;4802;51.494;6.770;2022-08-19T06:59:30;9.60;;;7.10;;
9526;SDS011;4802;51.494;6.770;2022-08-19T07:02:01;10.07;;;7.57;;
9526;SDS011;4802;51.494;6.770;2022-08-19T07:04:34;10.60;;;7.07;;
9526;SDS011;4802;51.494;6.770;2022-08-19T07:07:11;17.90;;;9.80;;
9526;SDS011;4802;51.494;6.770;2022-08-19T07:09:47;8.20;;;7.30;;
9526;SDS011;4802;51.494;6.770;2022-08-19T07:12:27;8.43;;;7.63;;
9526;SDS011;4802;51.494;6.770;2022-08-19T07:15:04;11.30;;;8.47;;
9526;SDS011;4802;51.494;6.770;2022-08-19T07:17:35;9.97;;;8.60;;
9526;SDS011;4802;51.494;6.770;2022-08-19T07:20:07;12.33;;;8.50;;
9526;SDS011;4802;51.494;6.770;2022-08-19T07:22:39;11.30;;;9.43;;
9526;SDS011;4802;51.494;6.770;2022-08-19T07:25:09;12.73;;;9.07;;
9526;SDS011;4802;51.494;6.770;2022-08-19T07:27:39;7.90;;;7.10;;
9526;SDS011;4802;51.494;6.770;2022-08-19T07:30:19;9.20;;;6.93;;
9526;SDS011;4802;51.494;6.770;2022-08-19T07:32:53;10.70;;;8.93;;
9526;SDS011;4802;51.494;6.770;2022-08-19T07:35:22;8.60;;;7.80;;
9526;SDS011;4802;51.494;6.770;2022-08-19T07:37:53;7.27;;;5.97;;
9526;SDS011;4802;51.494;6.770;2022-08-19T07:40:22;8.20;;;7.10;;
9526;SDS011;4802;51.494;6.770;2022-08-19T07:42:52;9.23;;;6.53;;
9526;SDS011;4802;51.494;6.770;2022-08-19T07:45:21;8.10;;;6.10;;
9526;SDS011;4802;51.494;6.770;2022-08-19T07:47:50;7.10;;;5.90;;
9526;SDS011;4802;51.494;6.770;2022-08-19T07:50:20;7.17;;;6.17;;
9526;SDS011;4802;51.494;6.770;2022-08-19T07:52:49;7.30;;;6.43;;
9526;SDS011;4802;51.494;6.770;2022-08-19T07:55:21;6.77;;;6.07;;
9526;SDS011;4802;51.494;6.770;2022-08-19T07:58:09;7.50;;;6.50;;
9526;SDS011;4802;51.494;6.770;2022-08-19T08:00:39;8.20;;;7.40;;
9526;SDS011;4802;51.494;6.770;2022-08-19T08:03:08;9.00;;;7.40;;
9526;SDS011;4802;51.494;6.770;2022-08-19T08:05:37;10.10;;;7.60;;
9526;SDS011;4802;51.494;6.770;2022-08-19T08:08:26;8.17;;;5.90;;
9526;SDS011;4802;51.494;6.770;2022-08-19T08:11:33;9.40;;;7.87;;
9526;SDS011;4802;51.494;6.770;2022-08-19T08:14:03;11.97;;;8.37;;
9526;SDS011;4802;51.494;6.770;2022-08-19T08:22:26;6.97;;;6.27;;
9526;SDS011;4802;51.494;6.770;2022-08-19T08:25:13;15.73;;;7.80;;
9526;SDS011;4802;51.494;6.770;2022-08-19T08:27:47;8.80;;;6.93;;
9526;SDS011;4802;51.494;6.770;2022-08-19T08:30:22;6.33;;;5.63;;
9526;SDS011;4802;51.494;6.770;2022-08-19T08:32:58;5.33;;;3.90;;
9526;SDS011;4802;51.494;6.770;2022-08-19T08:35:28;5.87;;;5.13;;
9526;SDS011;4802;51.494;6.770;2022-08-19T08:37:57;5.13;;;4.20;;
9526;SDS011;4802;51.494;6.770;2022-08-19T08:40:28;8.03;;;5.43;;
9526;SDS011;4802;51.494;6.770;2022-08-19T08:43:04;5.83;;;4.50;;
9526;SDS011;4802;51.494;6.770;2022-08-19T08:48:32;5.33;;;4.57;;
9526;SDS011;4802;51.494;6.770;2022-08-19T08:51:08;7.73;;;5.17;;
9526;SDS011;4802;51.494;6.770;2022-08-19T08:53:45;3.70;;;3.40;;
9526;SDS011;4802;51.494;6.770;2022-08-19T08:56:21;4.40;;;4.00;;
9526;SDS011;4802;51.494;6.770;2022-08-19T08:58:56;7.43;;;3.93;;
9526;SDS011;4802;51.494;6.770;2022-08-19T09:01:33;3.60;;;2.43;;
9526;SDS011;4802;51.494;6.770;2022-08-19T09:04:05;2.20;;;2.00;;
9526;SDS011;4802;51.494;6.770;2022-08-19T09:06:38;3.93;;;3.43;;
9526;SDS011;4802;51.494;6.770;2022-08-19T09:09:17;3.57;;;3.23;;
9526;SDS011;4802;51.494;6.770;2022-08-19T09:11:55;5.37;;;4.60;;
9526;SDS011;4802;51.494;6.770;2022-08-19T09:14:39;4.83;;;3.90;;
9526;SDS011;4802;51.494;6.770;2022-08-19T09:17:18;5.23;;;4.30;;
9526;SDS011;4802;51.494;6.770;2022-08-19T09:19:58;5.13;;;3.93;;
9526;SDS011;4802;51.494;6.770;2022-08-19T09:22:34;7.50;;;5.70;;
9526;SDS011;4802;51.494;6.770;2022-08-19T09:25:04;4.80;;;4.40;;
9526;SDS011;4802;51.494;6.770;2022-08-19T09:27:35;7.23;;;3.63;;
9526;SDS011;4802;51.494;6.770;2022-08-19T09:30:21;4.97;;;4.40;;
9526;SDS011;4802;51.494;6.770;2022-08-19T09:32:56;5.70;;;4.63;;
9526;SDS011;4802;51.494;6.770;2022-08-19T09:35:27;4.90;;;4.50;;
9526;SDS011;4802;51.494;6.770;2022-08-19T09:38:16;6.87;;;6.00;;
9526;SDS011;4802;51.494;6.770;2022-08-19T09:40:45;5.17;;;4.67;;
9526;SDS011;4802;51.494;6.770;2022-08-19T09:43:14;6.93;;;4.17;;
9526;SDS011;4802;51.494;6.770;2022-08-19T09:46:00;9.10;;;6.40;;
9526;SDS011;4802;51.494;6.770;2022-08-19T09:48:30;7.33;;;5.40;;
9526;SDS011;4802;51.494;6.770;2022-08-19T09:51:03;6.43;;;5.93;;
9526;SDS011;4802;51.494;6.770;2022-08-19T09:53:37;9.10;;;6.83;;
9526;SDS011;4802;51.494;6.770;2022-08-19T09:56:06;9.20;;;6.90;;
9526;SDS011;4802;51.494;6.770;2022-08-19T09:58:37;7.73;;;4.67;;
9526;SDS011;4802;51.494;6.770;2022-08-19T10:01:08;14.93;;;5.40;;
9526;SDS011;4802;51.494;6.770;2022-08-19T10:03:44;8.10;;;6.13;;
9526;SDS011;4802;51.494;6.770;2022-08-19T10:06:16;6.40;;;5.80;;
9526;SDS011;4802;51.494;6.770;2022-08-19T10:09:06;6.53;;;5.40;;
9526;SDS011;4802;51.494;6.770;2022-08-19T10:11:39;8.20;;;7.40;;
9526;SDS011;4802;51.494;6.770;2022-08-19T10:14:19;9.17;;;7.97;;
9526;SDS011;4802;51.494;6.770;2022-08-19T10:16:51;6.53;;;5.93;;
9526;SDS011;4802;51.494;6.770;2022-08-19T10:19:20;9.73;;;6.87;;
9526;SDS011;4802;51.494;6.770;2022-08-19T10:21:51;11.30;;;8.30;;
9526;SDS011;4802;51.494;6.770;2022-08-19T10:24:25;7.03;;;5.40;;
9526;SDS011;4802;51.494;6.770;2022-08-19T10:26:55;7.87;;;6.23;;
9526;SDS011;4802;51.494;6.770;2022-08-19T10:29:25;9.73;;;5.63;;
9526;SDS011;4802;51.494;6.770;2022-08-19T10:32:00;5.83;;;5.10;;
9526;SDS011;4802;51.494;6.770;2022-08-19T10:34:35;9.93;;;6.57;;
9526;SDS011;4802;51.494;6.770;2022-08-19T10:37:15;6.37;;;5.00;;
9526;SDS011;4802;51.494;6.770;2022-08-19T10:39:56;8.40;;;5.80;;
9526;SDS011;4802;51.494;6.770;2022-08-19T10:42:26;7.87;;;5.40;;
9526;SDS011;4802;51.494;6.770;2022-08-19T10:44:57;7.40;;;6.03;;
9526;SDS011;4802;51.494;6.770;2022-08-19T10:47:44;8.40;;;5.63;;
9526;SDS011;4802;51.494;6.770;2022-08-19T10:50:14;4.70;;;4.30;;
9526;SDS011;4802;51.494;6.770;2022-08-19T10:53:03;5.10;;;4.70;;
9526;SDS011;4802;51.494;6.770;2022-08-19T10:55:35;6.23;;;4.50;;
9526;SDS011;4802;51.494;6.770;2022-08-19T10:58:22;4.40;;;4.00;;
9526;SDS011;4802;51.494;6.770;2022-08-19T11:00:51;7.43;;;5.53;;
9526;SDS011;4802;51.494;6.770;2022-08-19T11:03:27;3.63;;;3.33;;
9526;SDS011;4802;51.494;6.770;2022-08-19T11:05:59;5.00;;;3.70;;
9526;SDS011;4802;51.494;6.770;2022-08-19T11:08:30;7.13;;;4.73;;
9526;SDS011;4802;51.494;6.770;2022-08-19T11:11:01;4.47;;;3.83;;
9526;SDS011;4802;51.494;6.770;2022-08-19T11:13:34;6.43;;;5.23;;
9526;SDS011;4802;51.494;6.770;2022-08-19T11:16:08;6.23;;;4.70;;
9526;SDS011;4802;51.494;6.770;2022-08-19T11:18:44;5.27;;;4.67;;
9526;SDS011;4802;51.494;6.770;2022-08-19T11:21:16;4.80;;;3.30;;
9526;SDS011;4802;51.494;6.770;2022-08-19T11:23:47;7.63;;;3.23;;
9526;SDS011;4802;51.494;6.770;2022-08-19T11:26:19;6.20;;;4.10;;
9526;SDS011;4802;51.494;6.770;2022-08-19T11:28:51;6.07;;;3.80;;
9526;SDS011;4802;51.494;6.770;2022-08-19T11:31:24;6.43;;;5.57;;
9526;SDS011;4802;51.494;6.770;2022-08-19T11:33:57;4.33;;;3.93;;
9526;SDS011;4802;51.494;6.770;2022-08-19T11:36:34;7.13;;;3.43;;
9526;SDS011;4802;51.494;6.770;2022-08-19T11:39:13;4.10;;;3.67;;
9526;SDS011;4802;51.494;6.770;2022-08-19T11:41:46;2.97;;;2.77;;
9526;SDS011;4802;51.494;6.770;2022-08-19T11:44:16;3.00;;;2.77;;
9526;SDS011;4802;51.494;6.770;2022-08-19T11:46:45;3.70;;;3.00;;
9526;SDS011;4802;51.494;6.770;2022-08-19T11:49:19;3.87;;;3.10;;
9526;SDS011;4802;51.494;6.770;2022-08-19T11:51:54;2.90;;;2.70;;
9526;SDS011;4802;51.494;6.770;2022-08-19T11:54:26;2.37;;;2.17;;
9526;SDS011;4802;51.494;6.770;2022-08-19T11:57:02;2.40;;;1.93;;
9526;SDS011;4802;51.494;6.770;2022-08-19T11:59:52;3.07;;;2.53;;
9526;SDS011;4802;51.494;6.770;2022-08-19T12:02:22;1.57;;;1.47;;
9526;SDS011;4802;51.494;6.770;2022-08-19T12:04:57;4.13;;;3.83;;
9526;SDS011;4802;51.494;6.770;2022-08-19T12:07:37;3.30;;;2.97;;
9526;SDS011;4802;51.494;6.770;2022-08-19T12:10:20;3.37;;;3.17;;
9526;SDS011;4802;51.494;6.770;2022-08-19T12:12:55;4.57;;;2.43;;
9526;SDS011;4802;51.494;6.770;2022-08-19T12:15:26;4.77;;;2.70;;
9526;SDS011;4802;51.494;6.770;2022-08-19T12:18:03;3.27;;;2.97;;
9526;SDS011;4802;51.494;6.770;2022-08-19T12:20:35;2.57;;;2.37;;
9526;SDS011;4802;51.494;6.770;2022-08-19T12:23:07;1.80;;;1.70;;
9526;SDS011;4802;51.494;6.770;2022-08-19T12:25:42;2.90;;;2.70;;
9526;SDS011;4802;51.494;6.770;2022-08-19T12:28:18;7.13;;;5.20;;
9526;SDS011;4802;51.494;6.770;2022-08-19T12:30:49;2.97;;;2.80;;
9526;SDS011;4802;51.494;6.770;2022-08-19T12:33:19;2.33;;;2.13;;
9526;SDS011;4802;51.494;6.770;2022-08-19T12:35:59;2.13;;;2.00;;
9526;SDS011;4802;51.494;6.770;2022-08-19T12:38:31;4.03;;;3.70;;
9526;SDS011;4802;51.494;6.770;2022-08-19T12:41:01;5.20;;;3.40;;
9526;SDS011;4802;51.494;6.770;2022-08-19T12:43:32;1.73;;;1.63;;
9526;SDS011;4802;51.494;6.770;2022-08-19T12:46:03;2.97;;;2.77;;
9526;SDS011;4802;51.494;6.770;2022-08-19T12:48:36;3.17;;;1.87;;
9526;SDS011;4802;51.494;6.770;2022-08-19T12:51:10;1.20;;;1.20;;
9526;SDS011;4802;51.494;6.770;2022-08-19T12:53:42;3.50;;;2.03;;
9526;SDS011;4802;51.494;6.770;2022-08-19T12:56:14;2.17;;;2.07;;
9526;SDS011;4802;51.494;6.770;2022-08-19T12:58:48;1.10;;;1.07;;
9526;SDS011;4802;51.494;6.770;2022-08-19T13:01:19;2.90;;;2.23;;
9526;SDS011;4802;51.494;6.770;2022-08-19T13:03:49;4.40;;;2.03;;
9526;SDS011;4802;51.494;6.770;2022-08-19T13:06:22;2.60;;;1.37;;
9526;SDS011;4802;51.494;6.770;2022-08-19T13:08:51;2.07;;;1.97;;
9526;SDS011;4802;51.494;6.770;2022-08-19T13:11:25;2.97;;;2.50;;
9526;SDS011;4802;51.494;6.770;2022-08-19T13:13:59;2.60;;;2.40;;
9526;SDS011;4802;51.494;6.770;2022-08-19T13:16:35;3.27;;;2.77;;
9526;SDS011;4802;51.494;6.770;2022-08-19T13:19:07;2.60;;;2.40;;
9526;SDS011;4802;51.494;6.770;2022-08-19T13:21:41;2.00;;;1.90;;
9526;SDS011;4802;51.494;6.770;2022-08-19T13:24:40;2.27;;;2.07;;
9526;SDS011;4802;51.494;6.770;2022-08-19T13:27:12;2.30;;;2.13;;
9526;SDS011;4802;51.494;6.770;2022-08-19T13:29:42;2.03;;;1.90;;
9526;SDS011;4802;51.494;6.770;2022-08-19T13:32:29;3.17;;;2.57;;
9526;SDS011;4802;51.494;6.770;2022-08-19T13:35:16;2.60;;;2.30;;
9526;SDS011;4802;51.494;6.770;2022-08-19T13:37:49;2.43;;;2.33;;
9526;SDS011;4802;51.494;6.770;2022-08-19T13:40:19;3.73;;;2.37;;
9526;SDS011;4802;51.494;6.770;2022-08-19T13:42:51;1.60;;;1.50;;
9526;SDS011;4802;51.494;6.770;2022-08-19T13:45:24;3.53;;;3.33;;
9526;SDS011;4802;51.494;6.770;2022-08-19T13:47:55;2.40;;;2.30;;
9526;SDS011;4802;51.494;6.770;2022-08-19T13:50:27;2.53;;;2.20;;
9526;SDS011;4802;51.494;6.770;2022-08-19T13:53:02;3.03;;;2.27;;
9526;SDS011;4802;51.494;6.770;2022-08-19T13:55:31;2.57;;;2.43;;
9526;SDS011;4802;51.494;6.770;2022-08-19T13:58:02;4.93;;;2.97;;
9526;SDS011;4802;51.494;6.770;2022-08-19T14:00:33;3.67;;;2.17;;
9526;SDS011;4802;51.494;6.770;2022-08-19T14:03:06;3.13;;;2.93;;
9526;SDS011;4802;51.494;6.770;2022-08-19T14:05:36;2.80;;;2.60;;
9526;SDS011;4802;51.494;6.770;2022-08-19T14:08:07;3.03;;;2.77;;
9526;SDS011;4802;51.494;6.770;2022-08-19T14:10:37;3.00;;;2.90;;
9526;SDS011;4802;51.494;6.770;2022-08-19T14:13:08;2.83;;;2.63;;
9526;SDS011;4802;51.494;6.770;2022-08-19T14:15:38;2.20;;;2.10;;
9526;SDS011;4802;51.494;6.770;2022-08-19T14:18:08;4.43;;;4.03;;
9526;SDS011;4802;51.494;6.770;2022-08-19T14:20:37;2.73;;;2.50;;
9526;SDS011;4802;51.494;6.770;2022-08-19T14:23:08;3.23;;;3.00;;
9526;SDS011;4802;51.494;6.770;2022-08-19T14:25:39;3.60;;;3.30;;
9526;SDS011;4802;51.494;6.770;2022-08-19T14:28:08;2.53;;;2.43;;
9526;SDS011;4802;51.494;6.770;2022-08-19T14:30:38;2.40;;;2.20;;
9526;SDS011;4802;51.494;6.770;2022-08-19T14:33:12;3.37;;;3.13;;
9526;SDS011;4802;51.494;6.770;2022-08-19T14:35:44;3.67;;;2.43;;
9526;SDS011;4802;51.494;6.770;2022-08-19T14:38:16;3.43;;;2.37;;
9526;SDS011;4802;51.494;6.770;2022-08-19T14:41:05;2.47;;;2.23;;
9526;SDS011;4802;51.494;6.770;2022-08-19T14:43:40;1.10;;;1.10;;
9526;SDS011;4802;51.494;6.770;2022-08-19T14:46:16;4.40;;;3.60;;
9526;SDS011;4802;51.494;6.770;2022-08-19T14:48:50;3.70;;;2.40;;
9526;SDS011;4802;51.494;6.770;2022-08-19T14:51:35;3.40;;;2.20;;
9526;SDS011;4802;51.494;6.770;2022-08-19T14:54:08;4.63;;;3.43;;
9526;SDS011;4802;51.494;6.770;2022-08-19T14:56:39;3.90;;;3.20;;
9526;SDS011;4802;51.494;6.770;2022-08-19T14:59:10;3.30;;;3.10;;
9526;SDS011;4802;51.494;6.770;2022-08-19T15:01:40;3.00;;;2.80;;
9526;SDS011;4802;51.494;6.770;2022-08-19T15:04:10;6.50;;;4.13;;
9526;SDS011;4802;51.494;6.770;2022-08-19T15:06:39;2.90;;;2.67;;
9526;SDS011;4802;51.494;6.770;2022-08-19T15:09:12;4.07;;;2.80;;
9526;SDS011;4802;51.494;6.770;2022-08-19T15:11:42;4.27;;;3.47;;
9526;SDS011;4802;51.494;6.770;2022-08-19T15:14:12;3.43;;;2.87;;
9526;SDS011;4802;51.494;6.770;2022-08-19T15:16:42;3.27;;;3.03;;
9526;SDS011;4802;51.494;6.770;2022-08-19T15:19:11;3.17;;;2.93;;
9526;SDS011;4802;51.494;6.770;2022-08-19T15:21:41;6.23;;;3.90;;
9526;SDS011;4802;51.494;6.770;2022-08-19T15:24:10;3.73;;;3.43;;
9526;SDS011;4802;51.494;6.770;2022-08-19T15:26:43;3.53;;;3.23;;
9526;SDS011;4802;51.494;6.770;2022-08-19T15:29:14;4.53;;;3.40;;
9526;SDS011;4802;51.494;6.770;2022-08-19T15:31:44;3.00;;;2.80;;
9526;SDS011;4802;51.494;6.770;2022-08-19T15:34:15;3.63;;;3.00;;
9526;SDS011;4802;51.494;6.770;2022-08-19T15:36:48;5.00;;;4.20;;
9526;SDS011;4802;51.494;6.770;2022-08-19T15:39:24;3.70;;;2.63;;
9526;SDS011;4802;51.494;6.770;2022-08-19T15:41:55;5.47;;;3.00;;
9526;SDS011;4802;51.494;6.770;2022-08-19T15:44:32;7.17;;;3.60;;
9526;SDS011;4802;51.494;6.770;2022-08-19T15:47:28;3.50;;;3.17;;
9526;SDS011;4802;51.494;6.770;2022-08-19T15:50:04;5.10;;;3.67;;
9526;SDS011;4802;51.494;6.770;2022-08-19T15:52:36;7.23;;;3.83;;
9526;SDS011;4802;51.494;6.770;2022-08-19T15:55:16;3.60;;;3.00;;
9526;SDS011;4802;51.494;6.770;2022-08-19T15:58:00;3.20;;;2.30;;
9526;SDS011;4802;51.494;6.770;2022-08-19T16:00:55;4.80;;;3.70;;
9526;SDS011;4802;51.494;6.770;2022-08-19T16:03:45;5.03;;;3.73;;
9526;SDS011;4802;51.494;6.770;2022-08-19T16:06:41;3.00;;;2.80;;